createdAt,value
2023-03-14T00:01:47.341Z,96934.31
2023-03-14T00:04:49.991Z,96928.25
2023-03-14T00:07:52.594Z,96918.31
2023-03-14T00:10:55.226Z,96911.13
2023-03-14T00:13:57.956Z,96905.19
2023-03-14T00:17:00.493Z,96901.28
2023-03-14T00:20:12.779Z,96905.38
2023-03-14T00:23:15.273Z,96890.22
2023-03-14T00:26:19.809Z,96885.31
2023-03-14T00:29:22.517Z,96868.31
2023-03-14T00:32:25.390Z,96859.81
2023-03-14T00:35:28.019Z,96866.03
2023-03-14T00:38:32.220Z,96858.19
2023-03-14T00:41:34.747Z,96855.53
2023-03-14T00:44:37.366Z,96852.28
2023-03-14T00:47:47.250Z,96828.44
2023-03-14T00:50:49.786Z,96816.38
2023-03-14T00:53:52.357Z,96803.78
2023-03-14T00:56:55.050Z,96801.16
2023-03-14T00:59:58.640Z,96787.94
2023-03-14T01:03:01.972Z,96793.78
2023-03-14T01:06:16.088Z,96778.47
2023-03-14T01:09:19.034Z,96770.47
2023-03-14T01:12:24.745Z,96770.97
2023-03-14T01:15:27.406Z,96764.06
2023-03-14T01:18:30.006Z,96762.28
2023-03-14T01:21:34.240Z,96754.97
2023-03-14T01:24:38.435Z,96746.81
2023-03-14T01:27:41.643Z,96744.50
2023-03-14T01:30:44.618Z,96737.81
2023-03-14T01:33:49.027Z,96719.56
2023-03-14T01:36:51.933Z,96732.13
2023-03-14T01:39:55.456Z,96730.78
2023-03-14T01:43:06.803Z,96739.44
2023-03-14T01:46:10.093Z,96748.75
2023-03-14T01:49:24.023Z,96752.13
2023-03-14T01:52:36.962Z,96749.03
2023-03-14T01:55:40.011Z,96750.63
2023-03-14T01:58:43.214Z,96735.63
2023-03-14T02:01:48.394Z,96732.06
2023-03-14T02:04:52.536Z,96717.25
2023-03-14T02:08:00.187Z,96718.88
2023-03-14T02:11:08.571Z,96709.25
2023-03-14T02:14:35.113Z,96712.84
2023-03-14T02:18:07.196Z,96713.66
2023-03-14T02:21:57.182Z,96693.28
2023-03-14T02:25:16.804Z,96680.84
2023-03-14T02:28:20.521Z,96670.44
2023-03-14T02:31:26.112Z,96650.38
2023-03-14T02:34:29.047Z,96645.31
2023-03-14T02:37:40.226Z,96653.13
2023-03-14T02:40:43.816Z,96655.72
2023-03-14T02:43:47.185Z,96671.50
2023-03-14T02:46:51.231Z,96675.16
2023-03-14T02:49:57.158Z,96669.75
2023-03-14T02:52:59.705Z,96677.88
2023-03-14T02:56:03.339Z,96666.16
2023-03-14T02:59:08.272Z,96654.09
2023-03-14T03:02:18.356Z,96638.28
2023-03-14T03:05:20.900Z,96639.59
2023-03-14T03:08:25.572Z,96639.59
2023-03-14T03:11:28.290Z,96640.41
2023-03-14T03:14:31.240Z,96642.53
2023-03-14T03:17:40.039Z,96644.34
2023-03-14T03:20:42.663Z,96646.59
2023-03-14T03:23:45.714Z,96645.66
2023-03-14T03:26:48.339Z,96637.84
2023-03-14T03:29:53.564Z,96637.16
2023-03-14T03:33:26.639Z,96636.97
2023-03-14T03:36:36.198Z,96621.47
2023-03-14T03:39:46.505Z,96619.34
2023-03-14T03:43:01.241Z,96620.84
2023-03-14T03:46:09.371Z,96608.94
2023-03-14T03:49:20.729Z,96620.16
2023-03-14T03:52:23.783Z,96605.97
2023-03-14T03:55:44.364Z,96601.59
2023-03-14T03:58:49.918Z,96593.13
2023-03-14T04:01:53.238Z,96601.06
2023-03-14T04:04:56.010Z,96619.19
2023-03-14T04:07:58.692Z,96629.28
2023-03-14T04:11:04.437Z,96619.28
2023-03-14T04:14:22.270Z,96627.28
2023-03-14T04:17:32.345Z,96625.28
2023-03-14T04:20:36.363Z,96612.88
2023-03-14T04:23:40.150Z,96594.25
2023-03-14T04:26:43.614Z,96584.50
2023-03-14T04:29:47.748Z,96578.63
2023-03-14T04:32:53.444Z,96587.13
2023-03-14T04:35:59.315Z,96586.72
2023-03-14T04:39:01.896Z,96567.72
2023-03-14T04:42:04.634Z,96578.31
2023-03-14T04:45:08.193Z,96587.66
2023-03-14T04:48:11.609Z,96578.84
2023-03-14T04:51:14.572Z,96584.22
2023-03-14T04:54:17.532Z,96577.06
2023-03-14T04:57:21.332Z,96569.25
2023-03-14T05:00:24.844Z,96567.13
2023-03-14T05:03:53.665Z,96567.00
2023-03-14T05:07:09.119Z,96558.19
2023-03-14T05:10:44.170Z,96567.31
2023-03-14T05:13:53.092Z,96564.09
2023-03-14T05:17:19.793Z,96553.50
2023-03-14T05:20:41.532Z,96556.13
2023-03-14T05:24:07.074Z,96547.84
2023-03-14T05:27:36.247Z,96553.22
2023-03-14T05:31:09.593Z,96556.00
2023-03-14T05:34:27.346Z,96563.16
2023-03-14T05:37:53.010Z,96570.66
2023-03-14T05:41:17.620Z,96559.25
2023-03-14T05:44:41.050Z,96548.00
2023-03-14T05:48:01.279Z,96531.88
2023-03-14T05:51:27.218Z,96528.97
2023-03-14T05:54:46.699Z,96554.06
2023-03-14T05:58:02.184Z,96561.56
2023-03-14T06:01:23.281Z,96569.88
2023-03-14T06:04:40.036Z,96568.41
2023-03-14T06:07:42.796Z,96556.00
2023-03-14T06:10:46.705Z,96551.13
2023-03-14T06:13:49.792Z,96536.47
2023-03-14T06:16:52.379Z,96555.53
2023-03-14T06:19:56.720Z,96551.81
2023-03-14T06:23:00.032Z,96574.16
2023-03-14T06:26:02.839Z,96585.22
2023-03-14T06:29:06.245Z,96569.09
2023-03-14T06:32:11.299Z,96582.34
2023-03-14T06:35:16.914Z,96575.00
2023-03-14T06:38:20.728Z,96591.00
2023-03-14T06:41:27.153Z,96597.84
2023-03-14T06:44:29.825Z,96604.69
2023-03-14T06:47:32.752Z,96616.28
2023-03-14T06:50:35.853Z,96622.81
2023-03-14T06:53:39.780Z,96626.84
2023-03-14T06:56:43.302Z,96632.69
2023-03-14T06:59:46.159Z,96619.28
2023-03-14T07:02:48.860Z,96615.94
2023-03-14T07:06:02.968Z,96611.69
2023-03-14T07:09:05.782Z,96624.59
2023-03-14T07:12:11.132Z,96624.44
2023-03-14T07:15:18.985Z,96629.81
2023-03-14T07:18:25.935Z,96634.50
2023-03-14T07:21:28.880Z,96634.59
2023-03-14T07:24:31.653Z,96625.88
2023-03-14T07:27:34.385Z,96630.41
2023-03-14T07:30:37.201Z,96636.66
2023-03-14T07:33:46.639Z,96621.88
2023-03-14T07:36:49.317Z,96634.53
2023-03-14T07:39:52.118Z,96636.72
2023-03-14T07:42:58.704Z,96629.19
2023-03-14T07:46:14.094Z,96624.75
2023-03-14T07:49:16.656Z,96633.38
2023-03-14T07:52:19.324Z,96621.91
2023-03-14T07:55:22.169Z,96623.03
2023-03-14T07:58:24.668Z,96619.66
2023-03-14T08:01:27.312Z,96614.97
2023-03-14T08:04:30.050Z,96620.13
2023-03-14T08:07:32.732Z,96627.44
2023-03-14T08:10:35.470Z,96607.28
2023-03-14T08:13:38.632Z,96614.00
2023-03-14T08:16:41.142Z,96609.63
2023-03-14T08:19:43.864Z,96617.06
2023-03-14T08:22:46.440Z,96613.66
2023-03-14T08:25:52.572Z,96610.19
2023-03-14T08:28:55.246Z,96613.81
2023-03-14T08:32:01.096Z,96596.38
2023-03-14T08:35:04.063Z,96608.84
2023-03-14T08:38:06.740Z,96612.97
2023-03-14T08:41:09.905Z,96605.84
2023-03-14T08:44:12.844Z,96599.88
2023-03-14T08:47:15.843Z,96590.75
2023-03-14T08:50:20.761Z,96584.00
2023-03-14T08:53:23.841Z,96581.88
2023-03-14T08:56:26.449Z,96573.69
2023-03-14T08:59:29.219Z,96572.03
2023-03-14T09:02:31.763Z,96566.09
2023-03-14T09:05:35.586Z,96563.75
2023-03-14T09:08:39.690Z,96558.84
2023-03-14T09:11:42.515Z,96556.47
2023-03-14T09:14:45.197Z,96551.81
2023-03-14T09:17:48.271Z,96549.66
2023-03-14T09:20:51.180Z,96546.31
2023-03-14T09:23:53.966Z,96555.72
2023-03-14T09:26:58.100Z,96560.88
2023-03-14T09:30:00.767Z,96562.66
2023-03-14T09:33:03.564Z,96553.94
2023-03-14T09:36:07.181Z,96551.72
2023-03-14T09:39:09.874Z,96550.75
2023-03-14T09:42:16.582Z,96549.25
2023-03-14T09:45:28.884Z,96551.97
2023-03-14T09:48:34.336Z,96555.16
2023-03-14T09:51:37.686Z,96563.69
2023-03-14T09:55:02.698Z,96557.16
2023-03-14T09:58:11.896Z,96549.88
2023-03-14T10:01:17.563Z,96562.97
2023-03-14T10:04:24.377Z,96556.59
2023-03-14T10:07:30.845Z,96552.78
2023-03-14T10:10:33.973Z,96546.16
2023-03-14T10:13:36.638Z,96544.50
2023-03-14T10:16:44.110Z,96542.31
2023-03-14T10:19:56.025Z,96540.66
2023-03-14T10:22:58.725Z,96536.22
2023-03-14T10:26:01.734Z,96550.81
2023-03-14T10:29:14.351Z,96549.97
2023-03-14T10:32:21.139Z,96550.53
2023-03-14T10:35:24.393Z,96560.06
2023-03-14T10:38:30.004Z,96556.03
2023-03-14T10:41:33.111Z,96548.97
2023-03-14T10:44:35.991Z,96544.53
2023-03-14T10:47:50.056Z,96535.81
2023-03-14T10:51:08.128Z,96531.16
2023-03-14T10:54:20.900Z,96532.59
2023-03-14T10:57:23.784Z,96528.72
2023-03-14T11:00:26.399Z,96528.94
2023-03-14T11:03:32.544Z,96510.06
2023-03-14T11:06:46.280Z,96497.69
2023-03-14T11:10:10.656Z,96498.69
2023-03-14T11:13:35.066Z,96488.78
2023-03-14T11:16:59.244Z,96487.59
2023-03-14T11:20:17.183Z,96493.84
2023-03-14T11:23:58.477Z,96486.38
2023-03-14T11:27:18.958Z,96473.81
2023-03-14T11:30:43.033Z,96466.91
2023-03-14T11:34:13.157Z,96461.63
2023-03-14T11:37:26.024Z,96454.34
2023-03-14T11:40:29.587Z,96455.34
2023-03-14T11:43:44.165Z,96458.75
2023-03-14T11:46:55.242Z,96454.31
2023-03-14T11:50:23.395Z,96456.09
2023-03-14T11:53:49.702Z,96463.38
2023-03-14T11:56:59.097Z,96448.19
2023-03-14T12:00:14.352Z,96448.19
2023-03-14T12:03:25.901Z,96438.06
2023-03-14T12:06:37.820Z,96429.97
2023-03-14T12:09:40.497Z,96432.19
2023-03-14T12:12:43.485Z,96442.09
2023-03-14T12:16:21.600Z,96434.44
2023-03-14T12:19:25.604Z,96432.81
2023-03-14T12:22:29.816Z,96431.81
2023-03-14T12:25:34.330Z,96433.03
2023-03-14T12:28:37.299Z,96417.41
2023-03-14T12:31:44.759Z,96420.25
2023-03-14T12:34:47.461Z,96427.34
2023-03-14T12:37:53.039Z,96437.63
2023-03-14T12:41:23.825Z,96441.66
2023-03-14T12:44:32.845Z,96431.09
2023-03-14T12:47:38.478Z,96429.44
2023-03-14T12:50:46.565Z,96436.28
2023-03-14T12:54:23.029Z,96430.63
2023-03-14T12:57:32.457Z,96424.22
2023-03-14T13:00:37.130Z,96420.91
2023-03-14T13:03:56.330Z,96415.97
2023-03-14T13:07:01.271Z,96413.97
2023-03-14T13:13:36.300Z,96421.47
2023-03-14T13:16:39.174Z,96425.88
2023-03-14T13:19:44.251Z,96438.47
2023-03-14T13:22:49.294Z,96424.50
2023-03-14T13:25:52.729Z,96435.56
2023-03-14T13:28:55.373Z,96433.06
2023-03-14T13:32:17.413Z,96440.13
2023-03-14T13:35:31.090Z,96432.94
2023-03-14T13:38:37.073Z,96435.94
2023-03-14T13:41:41.245Z,96415.63
2023-03-14T13:44:43.900Z,96430.00
2023-03-14T13:47:49.253Z,96430.47
2023-03-14T13:51:13.417Z,96424.63
2023-03-14T13:54:27.381Z,96432.28
2023-03-14T13:57:44.817Z,96436.78
2023-03-14T14:01:05.301Z,96436.41
2023-03-14T14:04:10.765Z,96435.03
2023-03-14T14:07:19.936Z,96446.63
2023-03-14T14:10:23.166Z,96437.97
2023-03-14T14:13:26.509Z,96437.41
2023-03-14T14:16:30.309Z,96439.72
2023-03-14T14:19:35.019Z,96445.81
2023-03-14T14:22:38.151Z,96440.78
2023-03-14T14:25:41.090Z,96444.31
2023-03-14T14:28:43.758Z,96438.25
2023-03-14T14:31:46.701Z,96458.47
2023-03-14T14:34:59.562Z,96458.47
2023-03-14T14:38:03.159Z,96457.19
2023-03-14T14:41:05.969Z,96446.84
2023-03-14T14:44:09.214Z,96441.75
2023-03-14T14:47:17.064Z,96447.19
2023-03-14T14:50:39.526Z,96457.91
2023-03-14T14:53:44.409Z,96469.63
2023-03-14T14:56:50.106Z,96473.66
2023-03-14T14:59:56.578Z,96475.59
2023-03-14T15:03:02.207Z,96479.94
2023-03-14T15:06:05.502Z,96484.94
2023-03-14T15:09:11.481Z,96489.38
2023-03-14T15:12:14.231Z,96479.59
2023-03-14T15:15:18.671Z,96478.88
2023-03-14T15:18:21.360Z,96483.94
2023-03-14T15:21:25.292Z,96482.66
2023-03-14T15:24:28.287Z,96495.94
2023-03-14T15:27:33.338Z,96495.19
2023-03-14T15:30:36.442Z,96493.19
2023-03-14T15:33:39.277Z,96490.59
2023-03-14T15:36:41.979Z,96496.66
2023-03-14T15:39:44.845Z,96495.38
2023-03-14T15:42:47.636Z,96499.34
2023-03-14T15:45:51.875Z,96492.53
2023-03-14T15:48:54.701Z,96501.38
2023-03-14T15:51:58.208Z,96479.19
2023-03-14T15:55:01.585Z,96481.19
2023-03-14T15:58:04.497Z,96484.22
2023-03-14T16:01:10.572Z,96479.81
2023-03-14T16:04:13.743Z,96479.41
2023-03-14T16:07:16.581Z,96473.34
2023-03-14T16:10:19.823Z,96470.47
2023-03-14T16:13:23.201Z,96483.41
2023-03-14T16:16:26.032Z,96474.19
2023-03-14T16:19:29.496Z,96483.75
2023-03-14T16:22:35.987Z,96491.63
2023-03-14T16:25:39.048Z,96491.88
2023-03-14T16:28:42.651Z,96491.44
2023-03-14T16:31:45.469Z,96499.31
2023-03-14T16:34:48.361Z,96494.22
2023-03-14T16:37:51.118Z,96491.44
2023-03-14T16:41:05.036Z,96500.72
2023-03-14T16:44:07.780Z,96492.16
2023-03-14T16:47:11.101Z,96498.22
2023-03-14T16:50:13.961Z,96486.38
2023-03-14T16:53:16.720Z,96490.31
2023-03-14T16:56:19.685Z,96489.88
2023-03-14T16:59:22.324Z,96495.38
2023-03-14T17:02:25.393Z,96501.06
2023-03-14T17:05:28.264Z,96508.38
2023-03-14T17:08:31.255Z,96510.00
2023-03-14T17:11:34.793Z,96518.16
2023-03-14T17:14:38.042Z,96521.84
2023-03-14T17:17:41.172Z,96515.25
2023-03-14T17:20:43.993Z,96511.28
2023-03-14T17:23:46.916Z,96506.59
2023-03-14T17:26:49.996Z,96505.41
2023-03-14T17:29:52.866Z,96514.97
2023-03-14T17:32:57.599Z,96503.06
2023-03-14T17:36:01.709Z,96497.38
2023-03-14T17:39:04.485Z,96498.06
2023-03-14T17:42:08.253Z,96486.09
2023-03-14T17:45:11.559Z,96491.22
2023-03-14T17:48:14.353Z,96517.84
2023-03-14T17:51:17.467Z,96524.25
2023-03-14T17:54:20.757Z,96526.34
2023-03-14T17:57:23.740Z,96527.50
2023-03-14T18:00:26.574Z,96546.53
2023-03-14T18:03:29.595Z,96543.25
2023-03-14T18:06:33.095Z,96550.19
2023-03-14T18:09:35.938Z,96552.78
2023-03-14T18:12:39.721Z,96558.34
2023-03-14T18:15:43.026Z,96554.44
2023-03-14T18:18:48.868Z,96564.56
2023-03-14T18:21:54.822Z,96557.06
2023-03-14T18:24:57.814Z,96567.34
2023-03-14T18:28:01.366Z,96564.91
2023-03-14T18:31:08.726Z,96587.59
2023-03-14T18:34:12.537Z,96596.41
2023-03-14T18:37:15.492Z,96592.47
2023-03-14T18:40:20.003Z,96584.50
2023-03-14T18:43:23.185Z,96595.75
2023-03-14T18:46:26.244Z,96603.63
2023-03-14T18:49:29.164Z,96603.78
2023-03-14T18:52:32.478Z,96599.44
2023-03-14T18:55:35.734Z,96605.59
2023-03-14T18:58:39.010Z,96605.63
2023-03-14T19:01:43.577Z,96613.31
2023-03-14T19:04:46.675Z,96616.88
2023-03-14T19:07:49.967Z,96623.13
2023-03-14T19:10:55.189Z,96624.41
2023-03-14T19:14:00.213Z,96622.63
2023-03-14T19:17:03.262Z,96632.56
2023-03-14T19:20:06.643Z,96628.34
2023-03-14T19:23:10.036Z,96636.00
2023-03-14T19:26:16.445Z,96623.88
2023-03-14T19:29:19.666Z,96630.75
2023-03-14T19:32:23.031Z,96635.69
2023-03-14T19:35:27.676Z,96642.03
2023-03-14T19:38:30.624Z,96638.00
2023-03-14T19:41:34.850Z,96647.75
2023-03-14T19:44:38.127Z,96643.34
2023-03-14T19:47:41.525Z,96645.81
2023-03-14T19:50:45.279Z,96649.41
2023-03-14T19:53:49.859Z,96655.59
2023-03-14T19:56:52.988Z,96666.72
2023-03-14T19:59:55.839Z,96667.66
2023-03-14T20:02:59.552Z,96668.16
2023-03-14T20:06:12.035Z,96666.53
2023-03-14T20:09:15.231Z,96672.56
2023-03-14T20:12:18.712Z,96670.63
2023-03-14T20:15:22.238Z,96671.25
2023-03-14T20:18:25.424Z,96670.94
2023-03-14T20:21:29.136Z,96663.25
2023-03-14T20:24:32.884Z,96660.00
2023-03-14T20:27:37.102Z,96666.22
2023-03-14T20:30:40.421Z,96667.28
2023-03-14T20:33:43.335Z,96670.25
2023-03-14T20:36:48.372Z,96670.63
2023-03-14T20:39:51.642Z,96662.75
2023-03-14T20:42:54.837Z,96679.53
2023-03-14T20:45:59.491Z,96677.94
2023-03-14T20:49:03.254Z,96679.38
2023-03-14T20:52:06.355Z,96686.59
2023-03-14T20:55:09.645Z,96678.44
2023-03-14T20:58:15.351Z,96679.56
2023-03-14T21:07:53.429Z,96679.44
2023-03-14T21:10:56.379Z,96691.69
2023-03-14T21:13:59.466Z,96684.63
2023-03-14T21:17:02.721Z,96699.66
2023-03-14T21:20:07.089Z,96689.50
2023-03-14T21:23:11.926Z,96694.69
2023-03-14T21:26:15.402Z,96684.56
2023-03-14T21:32:21.647Z,96706.44
2023-03-14T21:35:24.481Z,96697.25
2023-03-14T21:38:27.300Z,96698.88
2023-03-14T21:41:30.192Z,96702.97
2023-03-14T21:44:37.358Z,96709.00
2023-03-14T21:47:40.450Z,96705.09
2023-03-14T21:50:44.749Z,96717.84
2023-03-14T21:53:47.288Z,96709.38
2023-03-14T21:56:49.889Z,96710.63
2023-03-14T21:59:52.613Z,96712.63
2023-03-14T22:03:12.437Z,96710.00
2023-03-14T22:06:15.661Z,96700.53
2023-03-14T22:09:19.015Z,96710.00
2023-03-14T22:12:21.794Z,96711.34
2023-03-14T22:15:24.307Z,96714.41
2023-03-14T22:18:26.857Z,96721.78
2023-03-14T22:21:30.304Z,96729.50
2023-03-14T22:24:32.979Z,96728.97
2023-03-14T22:27:35.628Z,96724.06
2023-03-14T22:30:41.909Z,96718.19
2023-03-14T22:33:44.576Z,96734.53
2023-03-14T22:36:47.226Z,96729.16
2023-03-14T22:39:49.751Z,96720.16
2023-03-14T22:42:54.028Z,96731.59
2023-03-14T22:46:03.837Z,96738.47
2023-03-14T22:49:06.485Z,96738.28
2023-03-14T22:52:09.111Z,96743.69
2023-03-14T22:55:11.655Z,96754.78
2023-03-14T22:58:14.519Z,96769.00
2023-03-14T23:01:17.319Z,96764.78
2023-03-14T23:04:20.325Z,96765.09
2023-03-14T23:07:22.792Z,96768.53
2023-03-14T23:10:25.381Z,96766.91
2023-03-14T23:13:28.465Z,96786.19
2023-03-14T23:16:39.975Z,96788.00
2023-03-14T23:19:45.701Z,96805.81
2023-03-14T23:22:48.358Z,96799.25
2023-03-14T23:25:53.766Z,96797.63
2023-03-14T23:28:56.642Z,96807.41
2023-03-14T23:31:59.283Z,96804.50
2023-03-14T23:35:01.919Z,96802.88
2023-03-14T23:38:04.478Z,96813.00
2023-03-14T23:41:07.126Z,96823.59
2023-03-14T23:44:14.629Z,96823.94
2023-03-14T23:47:17.260Z,96846.25
2023-03-14T23:50:19.835Z,96836.13
2023-03-14T23:53:23.954Z,96841.66
2023-03-14T23:56:26.627Z,96839.19
2023-03-14T23:59:29.771Z,96833.78
